Terminal Aerodrome Forecast
Issued by NWS

Home | Current Version | Previous Version | Text Only | Print | Product List | Glossary On
Versions: 1 2 3 4 5 6 7 8 9 10 11 12 13 14 15 16 17 18 19 20
000
FTUS43 KBIS 071325 AAA
TAFDIK
TAF AMD
KDIK 071325Z 0713/0812 29025G31KT 3SM BLSN BKN015
     FM071700 30022G31KT 4SM BLSN BKN030
     FM072100 29024G34KT P6SM BKN035
     FM080000 30018KT P6SM BKN025=

USA.gov is the U.S. government's official web portal to all federal, state and local government web resources and services.